Time;durP1;ratioP1;P1;durP2;ratioP2;P2;SDS_P1;SDS_P2;PMS_P1;PMS_P2;Temp;Humidity;BMP_temperature;BMP_pressure;BME280_temperature;BME280_humidity;BME280_pressure;Samples;Min_cycle;Max_cycle;Signal;HPM_P1;HPM_P2
2021/05/30 00:00:17;;;;;;;4.30;3.00;;;10.30;99.90;;;11.21;100.00;99034.22;5060817;28;20472;-82
2021/05/30 00:02:46;;;;;;;4.67;3.07;;;10.20;99.90;;;11.14;100.00;99027.22;5063660;28;20482;-81
2021/05/30 00:05:14;;;;;;;4.60;3.00;;;10.10;99.90;;;11.09;100.00;99031.16;5065485;28;20545;-81
2021/05/30 00:07:42;;;;;;;5.10;3.57;;;10.00;99.90;;;11.14;100.00;99029.84;5066332;28;20467;-81
2021/05/30 00:10:12;;;;;;;4.43;3.70;;;10.10;99.90;;;11.17;100.00;99035.56;5063251;28;21070;-81
2021/05/30 00:12:45;;;;;;;8.40;3.00;;;10.10;99.90;;;11.21;100.00;99033.44;5066397;28;20848;-81
2021/05/30 00:15:15;;;;;;;5.07;3.30;;;10.10;99.90;;;11.15;100.00;99026.22;5064005;28;21484;-82
2021/05/30 00:17:43;;;;;;;4.30;2.87;;;10.10;99.90;;;11.11;100.00;99028.34;5063559;28;20829;-81
2021/05/30 00:20:13;;;;;;;5.30;3.47;;;10.10;99.90;;;10.91;100.00;99027.06;5065112;28;21022;-81
2021/05/30 00:22:42;;;;;;;6.30;3.17;;;9.80;99.90;;;10.68;100.00;99031.34;5060067;28;20968;-80
2021/05/30 00:25:12;;;;;;;11.33;4.00;;;9.60;99.90;;;10.71;100.00;99037.06;5065598;28;20462;-81
2021/05/30 00:27:40;;;;;;;10.30;3.40;;;9.70;99.90;;;10.77;100.00;99038.19;5059298;28;20468;-81
2021/05/30 00:30:10;;;;;;;4.50;3.27;;;9.70;99.90;;;10.62;100.00;99039.84;5063153;28;21040;-81
2021/05/30 00:32:39;;;;;;;6.63;3.70;;;9.50;99.90;;;10.69;100.00;99039.00;5065673;28;21203;-81
2021/05/30 00:35:08;;;;;;;9.13;2.97;;;9.70;99.90;;;10.80;100.00;99036.06;5061831;28;20565;-81
2021/05/30 00:37:36;;;;;;;4.97;3.47;;;9.80;99.90;;;10.56;100.00;99038.69;5067010;28;20547;-81
2021/05/30 00:40:06;;;;;;;7.67;3.20;;;9.50;99.90;;;10.58;100.00;99036.75;5069432;28;20456;-81
2021/05/30 00:42:34;;;;;;;3.80;3.43;;;9.50;99.90;;;10.67;100.00;99040.16;5070259;28;20938;-81
2021/05/30 00:45:03;;;;;;;5.47;3.00;;;9.60;99.90;;;10.57;100.00;99037.72;5066444;28;20472;-81
2021/05/30 00:47:31;;;;;;;4.00;3.10;;;9.50;99.90;;;10.60;100.00;99027.75;5069629;28;20472;-81
2021/05/30 00:50:00;;;;;;;3.80;2.80;;;9.50;99.90;;;10.75;100.00;99035.75;5067767;28;20513;-81
2021/05/30 00:52:28;;;;;;;3.60;2.67;;;9.80;99.90;;;10.58;100.00;99037.56;5067550;28;20460;-81
2021/05/30 00:54:56;;;;;;;4.30;3.37;;;9.50;99.90;;;10.45;100.00;99039.00;5066969;28;20849;-82
2021/05/30 00:57:25;;;;;;;11.10;3.30;;;9.40;99.90;;;10.50;100.00;99045.38;5065008;28;20467;-81
2021/05/30 00:59:53;;;;;;;7.70;2.97;;;9.50;99.90;;;10.49;100.00;99048.16;5066369;28;20456;-81
2021/05/30 01:02:21;;;;;;;6.80;3.87;;;9.40;99.90;;;10.28;100.00;99051.22;5065057;28;20460;-81
2021/05/30 01:04:49;;;;;;;4.90;3.73;;;9.20;99.90;;;10.29;100.00;99042.41;5065526;28;21029;-81
2021/05/30 01:07:18;;;;;;;4.30;2.80;;;9.30;99.90;;;10.20;100.00;99047.78;5068865;28;20541;-82
2021/05/30 01:09:48;;;;;;;4.97;3.40;;;9.10;99.90;;;10.15;100.00;99040.41;5065183;28;20452;-82
2021/05/30 01:12:19;;;;;;;7.10;3.53;;;9.10;99.90;;;10.15;100.00;99044.81;5069250;28;20970;-81
2021/05/30 01:14:49;;;;;;;3.80;3.40;;;9.10;99.90;;;10.18;100.00;99045.31;5064427;28;20546;-81
2021/05/30 01:17:18;;;;;;;3.13;2.50;;;9.20;99.90;;;10.29;100.00;99049.44;5066367;28;20952;-81
2021/05/30 01:19:52;;;;;;;5.93;3.30;;;9.30;99.90;;;10.30;100.00;99048.47;5069856;28;20480;-81
2021/05/30 01:22:22;;;;;;;7.33;3.60;;;9.40;99.90;;;10.20;100.00;99040.78;5066603;28;20460;-81
2021/05/30 01:24:51;;;;;;;4.53;3.23;;;9.20;99.90;;;10.00;100.00;99047.19;5066592;28;20464;-82
2021/05/30 01:27:19;;;;;;;5.63;3.13;;;9.00;99.90;;;10.08;100.00;99044.59;5064704;28;20491;-81
2021/05/30 01:29:47;;;;;;;4.07;3.30;;;9.00;99.90;;;10.02;100.00;99045.25;5066574;28;20506;-81
2021/05/30 01:32:15;;;;;;;9.63;3.40;;;9.00;99.90;;;10.12;100.00;99051.16;5067254;28;20464;-81
2021/05/30 01:34:44;;;;;;;3.80;3.10;;;9.10;99.90;;;10.23;100.00;99050.91;5064734;28;21341;-81
2021/05/30 01:37:12;;;;;;;5.17;3.23;;;9.20;99.90;;;9.99;100.00;99048.19;5064777;28;20468;-81
2021/05/30 01:39:40;;;;;;;9.90;3.10;;;8.90;99.90;;;10.00;100.00;99047.19;5068074;28;20872;-81
2021/05/30 01:42:09;;;;;;;5.10;3.07;;;8.90;99.90;;;9.99;100.00;99037.75;5066138;28;20505;-81
2021/05/30 01:44:37;;;;;;;4.97;3.40;;;8.90;99.90;;;9.93;100.00;99038.34;5065674;28;20559;-81
2021/05/30 01:47:06;;;;;;;4.10;3.13;;;8.90;99.90;;;9.87;100.00;99039.81;5065439;28;20459;-81
2021/05/30 01:49:35;;;;;;;6.43;3.50;;;8.80;99.90;;;9.82;100.00;99049.09;5066864;28;20991;-81
2021/05/30 01:52:05;;;;;;;5.07;2.90;;;8.80;99.90;;;9.68;100.00;99042.69;5060723;28;20460;-81
2021/05/30 01:54:35;;;;;;;3.60;2.73;;;8.60;99.90;;;9.68;100.00;99044.47;5063966;28;20503;-82
2021/05/30 01:57:08;;;;;;;3.90;3.20;;;8.60;99.90;;;9.78;100.00;99040.75;5065981;28;20553;-81
2021/05/30 01:59:38;;;;;;;3.23;2.93;;;8.70;99.90;;;9.64;100.00;99037.91;5065442;28;20464;-81
2021/05/30 02:02:06;;;;;;;5.73;3.17;;;8.50;99.90;;;9.67;100.00;99046.25;5065130;28;20464;-81
2021/05/30 02:04:41;;;;;;;7.93;3.20;;;8.60;99.90;;;9.71;100.00;99052.00;5063771;28;20559;-81
2021/05/30 02:07:10;;;;;;;3.93;3.17;;;8.60;99.90;;;9.73;100.00;99047.41;5061552;28;20456;-82
2021/05/30 02:09:39;;;;;;;4.03;2.80;;;8.70;99.90;;;9.69;100.00;99048.69;5068104;28;20468;-81
2021/05/30 02:12:09;;;;;;;4.30;3.50;;;8.70;99.90;;;9.69;100.00;99044.31;5068548;28;20513;-81
2021/05/30 02:14:38;;;;;;;5.70;3.03;;;8.70;99.90;;;9.65;100.00;99052.63;5064509;28;20500;-81
2021/05/30 02:17:06;;;;;;;7.47;2.80;;;8.60;99.90;;;9.59;100.00;99054.88;5065918;28;20464;-81
2021/05/30 02:19:34;;;;;;;6.53;3.50;;;8.60;99.90;;;9.53;100.00;99052.88;5060919;28;21861;-81
2021/05/30 02:22:04;;;;;;;7.80;3.60;;;8.60;99.90;;;9.46;100.00;99054.47;5066834;28;20510;-81
2021/05/30 02:24:32;;;;;;;9.80;3.77;;;8.40;99.90;;;9.37;100.00;99054.59;5066631;28;20562;-80
2021/05/30 02:27:00;;;;;;;5.60;3.50;;;8.30;99.90;;;9.33;100.00;99045.44;5065639;28;20523;-81
2021/05/30 02:29:36;;;;;;;4.70;4.00;;;8.40;99.90;;;9.43;100.00;99046.13;5064177;28;20464;-81
2021/05/30 02:32:09;;;;;;;3.80;3.00;;;8.40;99.90;;;9.28;100.00;99045.88;5063170;28;20456;-81
2021/05/30 02:34:41;;;;;;;5.00;3.43;;;8.30;99.90;;;9.34;100.00;99047.88;5065092;28;20487;-81
2021/05/30 02:37:12;;;;;;;3.27;2.77;;;8.40;99.90;;;9.23;100.00;99042.94;5064066;28;20582;-81
2021/05/30 02:39:40;;;;;;;4.80;4.13;;;8.30;99.90;;;9.28;100.00;99040.66;5063656;28;20467;-81
2021/05/30 02:42:10;;;;;;;5.50;3.33;;;8.30;99.90;;;9.14;100.00;99043.84;5068991;28;20447;-81
2021/05/30 02:44:39;;;;;;;4.20;2.90;;;8.10;99.90;;;9.17;100.00;99053.97;5064947;28;20463;-81
2021/05/30 02:47:08;;;;;;;4.30;3.30;;;8.10;99.90;;;9.08;100.00;99060.09;5063756;28;20463;-81
2021/05/30 02:49:36;;;;;;;3.87;3.20;;;8.00;99.90;;;9.12;100.00;99056.22;5064236;28;20476;-81
2021/05/30 02:52:06;;;;;;;3.40;3.10;;;8.10;99.90;;;9.09;100.00;99059.16;5067506;28;20463;-81
2021/05/30 02:54:34;;;;;;;4.27;3.30;;;8.10;99.90;;;9.11;100.00;99054.59;5065042;28;20504;-81
2021/05/30 02:57:03;;;;;;;5.30;3.10;;;8.10;99.90;;;9.13;100.00;99057.84;5066197;28;20483;-81
2021/05/30 02:59:31;;;;;;;3.60;3.17;;;8.10;99.90;;;9.10;100.00;99058.97;5062496;28;20464;-81
2021/05/30 03:02:00;;;;;;;4.03;3.17;;;8.10;99.90;;;9.09;100.00;99051.31;5067611;28;20936;-81
2021/05/30 03:04:29;;;;;;;3.70;2.97;;;8.10;99.90;;;9.14;100.00;99050.84;5066945;28;21059;-81
2021/05/30 03:06:57;;;;;;;6.97;3.30;;;8.10;99.90;;;8.96;100.00;99056.09;5068377;28;20436;-81
2021/05/30 03:09:25;;;;;;;7.30;3.73;;;7.90;99.90;;;9.02;100.00;99045.06;5068141;28;20486;-81
2021/05/30 03:11:54;;;;;;;3.67;2.93;;;8.00;99.90;;;8.90;100.00;99047.09;5068326;28;20456;-81
2021/05/30 03:14:23;;;;;;;5.80;3.67;;;7.80;99.90;;;8.99;100.00;99051.38;5061062;28;20527;-81
2021/05/30 03:16:51;;;;;;;9.53;3.63;;;8.00;99.90;;;9.12;100.00;99044.97;5067442;28;20441;-81
2021/05/30 03:19:21;;;;;;;10.50;3.80;;;8.20;99.90;;;9.16;100.00;99041.91;5067417;28;20440;-81
2021/05/30 03:21:50;;;;;;;6.13;3.73;;;8.30;99.90;;;9.18;100.00;99045.16;5068009;28;20482;-81
2021/05/30 03:24:19;;;;;;;4.40;3.20;;;8.30;99.90;;;9.02;100.00;99055.50;5067243;28;20514;-81
2021/05/30 03:26:47;;;;;;;7.20;3.17;;;8.10;99.90;;;9.00;100.00;99060.03;5066378;28;20440;-81
2021/05/30 03:29:15;;;;;;;5.30;3.27;;;8.00;99.90;;;9.00;100.00;99047.81;5067755;28;20444;-81
2021/05/30 03:31:43;;;;;;;4.37;3.07;;;8.00;99.90;;;8.91;100.00;99058.34;5067391;28;20483;-81
2021/05/30 03:34:11;;;;;;;5.67;3.60;;;7.90;99.90;;;8.78;100.00;99058.72;5066610;28;20479;-81
2021/05/30 03:36:40;;;;;;;5.43;3.50;;;7.80;99.90;;;8.75;100.00;99058.19;5067100;28;20931;-81
2021/05/30 03:39:10;;;;;;;10.23;4.20;;;7.70;99.90;;;8.77;100.00;99056.28;5067706;28;20445;-81
2021/05/30 03:41:40;;;;;;;3.70;3.07;;;7.70;99.90;;;8.73;100.00;99060.16;5063759;28;20453;-81
2021/05/30 03:44:10;;;;;;;3.60;3.30;;;7.70;99.90;;;8.63;100.00;99054.19;5058833;28;20953;-81
2021/05/30 03:46:38;;;;;;;7.90;3.27;;;7.60;99.90;;;8.62;100.00;99055.16;5058453;28;20445;-81
2021/05/30 03:49:09;;;;;;;8.17;3.60;;;7.60;99.90;;;8.68;100.00;99051.97;5058310;28;20474;-81
2021/05/30 03:51:37;;;;;;;6.80;3.63;;;7.60;99.90;;;8.67;100.00;99056.38;5065540;28;20867;-81
2021/05/30 03:54:05;;;;;;;4.13;3.37;;;7.60;99.90;;;8.55;100.00;99052.34;5067114;28;20498;-81
2021/05/30 03:56:36;;;;;;;5.37;3.00;;;7.50;99.90;;;8.35;100.00;99051.66;5066783;28;20476;-81
2021/05/30 03:59:04;;;;;;;4.20;3.40;;;7.30;99.90;;;8.43;100.00;99058.75;5067633;28;20440;-81
2021/05/30 04:01:35;;;;;;;4.83;3.37;;;7.30;99.90;;;8.49;100.00;99056.38;5066415;28;20964;-81
2021/05/30 04:04:03;;;;;;;4.77;3.10;;;7.40;99.90;;;8.39;100.00;99053.00;5065720;28;20553;-81
2021/05/30 04:06:31;;;;;;;5.17;3.60;;;7.40;99.90;;;8.43;100.00;99049.16;5061142;28;20448;-81
2021/05/30 04:09:00;;;;;;;5.00;3.60;;;7.40;99.90;;;8.38;100.00;99055.75;5066218;28;20486;-81
2021/05/30 04:11:28;;;;;;;13.73;3.40;;;7.30;99.90;;;8.33;100.00;99056.19;5062825;28;20456;-81
2021/05/30 04:13:57;;;;;;;4.60;3.07;;;7.30;99.90;;;8.37;100.00;99048.91;5064980;28;20449;-81
2021/05/30 04:16:25;;;;;;;4.90;3.70;;;7.30;99.90;;;8.47;100.00;99053.06;5064278;28;20757;-81
2021/05/30 04:18:53;;;;;;;4.77;3.63;;;7.40;99.90;;;8.57;100.00;99045.19;5066539;28;20428;-81
2021/05/30 04:21:22;;;;;;;4.67;3.67;;;7.60;99.90;;;8.66;100.00;99048.69;5067242;28;20452;-83
2021/05/30 04:23:50;;;;;;;5.27;3.60;;;7.70;99.90;;;8.53;100.00;99043.84;5066615;28;20443;-81
2021/05/30 04:26:18;;;;;;;5.03;3.70;;;7.50;99.90;;;8.58;100.00;99047.63;5059881;28;20834;-81
2021/05/30 04:28:46;;;;;;;5.60;3.83;;;7.60;99.90;;;8.65;100.00;99045.25;5063646;28;20452;-81
2021/05/30 04:31:15;;;;;;;4.33;3.33;;;7.70;99.90;;;8.71;100.00;99056.88;5061068;28;20880;-83
2021/05/30 04:33:43;;;;;;;6.00;3.50;;;7.70;99.90;;;8.75;100.00;99059.03;5061233;28;20488;-81
2021/05/30 04:36:11;;;;;;;4.20;3.37;;;7.70;99.90;;;8.77;100.00;99051.06;5057614;28;20476;-81
2021/05/30 04:38:39;;;;;;;12.13;3.90;;;7.70;99.90;;;8.86;100.00;99048.38;5062825;28;20970;-81
2021/05/30 04:41:07;;;;;;;4.10;3.50;;;7.90;99.90;;;8.76;100.00;99055.47;5060001;28;20945;-81
2021/05/30 04:43:35;;;;;;;7.20;3.97;;;7.80;99.90;;;8.74;100.00;99059.19;5061486;28;20456;-81
2021/05/30 04:46:03;;;;;;;5.67;4.60;;;7.70;99.90;;;8.67;100.00;99058.97;5059936;28;20494;-84
2021/05/30 04:48:32;;;;;;;6.30;4.03;;;7.60;99.90;;;8.67;100.00;99050.34;5061927;28;20483;-80
2021/05/30 04:51:07;;;;;;;5.03;4.20;;;7.60;99.90;;;8.80;100.00;99045.53;5061309;28;20465;-80
2021/05/30 04:53:40;;;;;;;5.43;3.23;;;7.70;99.90;;;8.89;100.00;99048.06;5065874;28;20452;-80
2021/05/30 04:56:09;;;;;;;5.10;3.97;;;7.90;99.90;;;8.97;100.00;99040.31;5065467;28;20908;-80
2021/05/30 04:58:38;;;;;;;6.27;4.10;;;7.90;99.90;;;9.08;100.00;99039.25;5065692;28;20440;-80
2021/05/30 05:01:07;;;;;;;4.13;3.30;;;8.10;99.90;;;9.17;100.00;99042.69;5060868;28;20440;-80
2021/05/30 05:03:36;;;;;;;10.40;3.40;;;8.20;99.90;;;9.14;100.00;99045.63;5065613;28;20451;-81
2021/05/30 05:06:05;;;;;;;6.20;3.90;;;8.10;99.90;;;9.11;100.00;99044.16;5066109;28;20432;-80
2021/05/30 05:08:34;;;;;;;4.93;3.30;;;8.10;99.90;;;9.16;100.00;99051.53;5064382;28;20453;-80
2021/05/30 05:11:02;;;;;;;4.53;3.60;;;8.20;99.90;;;9.25;100.00;99048.81;5064923;28;20853;-83
2021/05/30 05:13:31;;;;;;;5.57;3.97;;;8.30;99.90;;;9.35;100.00;99046.91;5065909;28;20992;-80
2021/05/30 05:15:59;;;;;;;5.87;3.77;;;8.40;99.90;;;9.43;100.00;99049.56;5065965;28;21007;-80
2021/05/30 05:18:31;;;;;;;4.80;3.70;;;8.50;99.90;;;9.43;100.00;99049.56;5065254;28;20449;-80
2021/05/30 05:21:03;;;;;;;5.00;3.30;;;8.50;99.90;;;9.39;100.00;99053.47;5062927;28;20443;-80
2021/05/30 05:23:31;;;;;;;5.10;4.00;;;8.40;99.90;;;9.37;100.00;99052.00;5067562;28;20500;-79
2021/05/30 05:26:01;;;;;;;4.33;3.30;;;8.40;99.90;;;9.46;100.00;99058.88;5069552;28;20460;-80
2021/05/30 05:28:31;;;;;;;6.07;3.80;;;8.50;99.90;;;9.54;100.00;99059.72;5069566;28;20472;-80
2021/05/30 05:31:00;;;;;;;4.23;3.47;;;8.60;99.90;;;9.55;100.00;99058.75;5069640;28;20458;-80
2021/05/30 05:33:29;;;;;;;7.80;4.50;;;8.60;99.90;;;9.61;100.00;99058.13;5069530;28;20437;-80
2021/05/30 05:35:58;;;;;;;5.20;4.00;;;8.80;99.90;;;9.68;100.00;99050.53;5068898;28;20492;-80
2021/05/30 05:38:26;;;;;;;6.47;3.90;;;8.90;99.90;;;9.77;100.00;99057.41;5063428;28;20847;-80
2021/05/30 05:40:55;;;;;;;5.60;4.20;;;9.00;99.90;;;9.81;100.00;99047.47;5065541;28;20441;-80
2021/05/30 05:43:22;;;;;;;5.20;4.00;;;9.00;99.90;;;9.94;100.00;99055.66;5066412;28;20437;-80
2021/05/30 05:45:50;;;;;;;8.73;4.83;;;9.20;99.90;;;10.04;100.00;99056.34;5068614;28;20700;-80
2021/05/30 05:48:19;;;;;;;13.63;5.40;;;9.30;99.90;;;10.14;100.00;99059.69;5069212;28;20444;-80
2021/05/30 05:50:47;;;;;;;9.23;5.63;;;9.40;99.90;;;10.25;100.00;99051.53;5066217;28;21011;-82
2021/05/30 05:53:16;;;;;;;15.40;7.97;;;9.50;99.90;;;10.34;100.00;99055.84;5064616;28;20459;-80
2021/05/30 05:55:45;;;;;;;10.23;5.77;;;9.60;99.90;;;10.45;100.00;99057.28;5071856;28;20992;-80
2021/05/30 05:58:14;;;;;;;11.43;5.47;;;9.70;99.90;;;10.54;100.00;99057.16;5068685;28;20444;-80
2021/05/30 06:00:42;;;;;;;9.57;6.40;;;9.80;99.90;;;10.64;100.00;99061.41;5068012;28;20494;-80
2021/05/30 06:03:10;;;;;;;10.60;5.77;;;10.00;99.90;;;10.72;100.00;99058.81;5064916;28;20489;-80
2021/05/30 06:05:38;;;;;;;9.83;6.07;;;10.00;99.90;;;10.80;100.00;99056.19;5063387;28;21264;-81
2021/05/30 06:08:06;;;;;;;8.53;6.00;;;10.10;99.90;;;10.88;100.00;99064.88;5063612;28;20494;-80
2021/05/30 06:10:34;;;;;;;8.07;5.57;;;10.20;99.90;;;10.94;100.00;99064.19;5061667;28;20465;-80
2021/05/30 06:13:09;;;;;;;13.10;6.43;;;10.40;99.90;;;11.02;100.00;99064.22;5063885;28;20465;-81
2021/05/30 06:15:39;;;;;;;9.47;5.67;;;10.40;99.90;;;11.07;100.00;99067.13;5065684;28;20537;-80
2021/05/30 06:18:12;;;;;;;7.93;5.70;;;10.40;99.90;;;11.15;100.00;99057.63;5066003;28;20460;-80
2021/05/30 06:20:41;;;;;;;8.47;5.40;;;10.50;99.90;;;11.22;100.00;99062.06;5064100;28;20980;-81
2021/05/30 06:23:10;;;;;;;10.10;5.47;;;10.60;99.90;;;11.27;100.00;99057.16;5064507;28;20460;-80
2021/05/30 06:25:39;;;;;;;10.60;5.67;;;10.70;99.90;;;11.32;100.00;99064.47;5066145;28;20968;-80
2021/05/30 06:28:08;;;;;;;9.47;5.47;;;10.70;99.90;;;11.39;100.00;99063.66;5066521;28;20460;-81
2021/05/30 06:30:38;;;;;;;11.03;6.00;;;10.70;99.90;;;11.46;100.00;99063.81;5064326;28;20844;-81
2021/05/30 06:33:09;;;;;;;9.60;5.50;;;10.80;99.90;;;11.53;100.00;99059.53;5068241;28;20800;-80
2021/05/30 06:35:40;;;;;;;48.17;22.47;;;10.90;99.90;;;11.61;100.00;99059.53;5067553;28;20545;-80
2021/05/30 06:38:08;;;;;;;7.60;5.40;;;10.90;99.90;;;11.65;100.00;99066.06;5067030;28;20456;-81
2021/05/30 06:40:37;;;;;;;11.23;5.50;;;11.00;99.90;;;11.71;100.00;99056.72;5066075;28;20550;-81
2021/05/30 06:43:09;;;;;;;7.00;5.37;;;11.10;99.90;;;11.78;100.00;99062.94;5065020;28;21015;-81
2021/05/30 06:45:37;;;;;;;6.97;4.57;;;11.20;99.90;;;11.81;100.00;99057.34;5066811;28;20960;-81
2021/05/30 06:48:06;;;;;;;7.60;4.87;;;11.20;99.90;;;11.88;100.00;99063.53;5062877;28;20467;-81
2021/05/30 06:50:34;;;;;;;8.67;4.73;;;11.20;99.90;;;11.93;100.00;99056.81;5066233;28;20484;-81
2021/05/30 06:53:02;;;;;;;9.27;4.90;;;11.30;99.90;;;11.99;100.00;99056.13;5064568;28;20522;-81
2021/05/30 06:55:34;;;;;;;5.50;4.70;;;11.40;99.90;;;12.07;100.00;99055.28;5062608;28;20594;-81
2021/05/30 06:58:03;;;;;;;9.70;5.83;;;11.40;99.90;;;12.15;100.00;99068.31;5064846;28;20464;-80
2021/05/30 07:00:32;;;;;;;7.27;5.00;;;11.60;99.90;;;12.17;100.00;99053.25;5064531;28;20833;-81
2021/05/30 07:03:00;;;;;;;6.23;4.87;;;11.60;99.90;;;12.23;100.00;99065.69;5065881;28;20464;-81
2021/05/30 07:05:28;;;;;;;9.30;5.40;;;11.70;99.90;;;12.27;100.00;99064.34;5065211;28;20506;-81
2021/05/30 07:07:57;;;;;;;8.63;5.67;;;11.70;99.90;;;12.31;100.00;99065.63;5066892;28;20460;-81
2021/05/30 07:10:25;;;;;;;7.93;5.60;;;11.70;99.90;;;12.38;100.00;99063.97;5064574;28;20461;-81
2021/05/30 07:12:53;;;;;;;5.87;4.23;;;11.70;99.90;;;12.48;100.00;99072.41;5059822;28;20464;-81
2021/05/30 07:15:22;;;;;;;8.83;4.67;;;11.80;99.90;;;12.53;100.00;99070.06;5061639;28;20472;-81
2021/05/30 07:17:51;;;;;;;8.37;5.77;;;11.90;99.90;;;12.60;100.00;99065.75;5063108;28;20465;-81
2021/05/30 07:20:21;;;;;;;10.77;5.23;;;12.10;99.90;;;12.64;100.00;99055.75;5065899;28;20484;-82
2021/05/30 07:22:49;;;;;;;8.03;4.80;;;12.20;99.90;;;12.70;100.00;99064.72;5064052;28;20471;-81
2021/05/30 07:25:18;;;;;;;14.87;4.70;;;12.20;99.90;;;12.84;100.00;99066.59;5058348;28;20460;-81
2021/05/30 07:27:46;;;;;;;14.80;5.17;;;12.20;99.90;;;12.85;100.00;99068.22;5069673;28;20827;-81
2021/05/30 07:30:15;;;;;;;6.57;4.53;;;12.20;99.90;;;12.91;100.00;99065.69;5062358;28;20956;-81
2021/05/30 07:32:43;;;;;;;8.47;3.73;;;12.30;99.90;;;12.97;100.00;99066.81;5062473;28;20456;-82
2021/05/30 07:35:14;;;;;;;5.47;3.70;;;12.40;99.90;;;13.03;100.00;99063.47;5062480;28;20486;-81
2021/05/30 07:37:42;;;;;;;7.33;4.27;;;12.40;99.90;;;13.06;100.00;99065.75;5060619;28;20461;-80
2021/05/30 07:40:12;;;;;;;5.63;4.50;;;12.50;99.90;;;13.13;100.00;99063.25;5062088;28;20886;-81
2021/05/30 07:42:40;;;;;;;6.97;4.03;;;12.50;99.90;;;13.16;100.00;99068.16;5061748;28;20453;-81
2021/05/30 07:45:11;;;;;;;4.97;4.07;;;12.60;99.90;;;13.20;100.00;99059.75;5062143;28;20818;-81
2021/05/30 07:47:39;;;;;;;5.17;3.83;;;12.70;99.90;;;13.26;100.00;99061.66;5060320;28;20804;-82
2021/05/30 07:50:10;;;;;;;5.70;4.33;;;12.80;99.90;;;13.34;100.00;99061.56;5063540;28;20523;-81
2021/05/30 07:52:40;;;;;;;8.07;4.43;;;12.80;99.90;;;13.40;100.00;99073.16;5059324;28;20788;-81
2021/05/30 07:55:10;;;;;;;4.40;3.63;;;12.80;99.90;;;13.47;99.47;99068.81;5060310;28;20464;-81
2021/05/30 07:57:39;;;;;;;7.43;4.40;;;12.90;99.90;;;13.55;97.84;99066.94;5061526;28;21710;-81
2021/05/30 08:00:12;;;;;;;7.07;4.63;;;13.00;99.90;;;13.61;96.39;99062.75;5062029;28;20456;-81
2021/05/30 08:02:40;;;;;;;6.87;3.83;;;13.10;99.90;;;13.65;97.42;99056.16;5064205;28;20459;-81
2021/05/30 08:05:11;;;;;;;9.30;4.20;;;13.10;99.90;;;13.69;97.74;99056.59;5063946;28;20468;-81
2021/05/30 08:07:40;;;;;;;8.80;4.30;;;13.20;99.90;;;13.75;97.86;99053.25;5062656;28;20548;-81
2021/05/30 08:10:10;;;;;;;6.00;3.97;;;13.20;99.90;;;13.84;93.80;99044.28;5064190;28;20456;-79
2021/05/30 08:12:38;;;;;;;6.40;4.23;;;13.30;99.90;;;13.88;91.14;99045.56;5062625;28;20460;-81
2021/05/30 08:15:10;;;;;;;4.87;3.67;;;13.40;99.90;;;13.98;92.63;99054.78;5063705;28;20432;-81
2021/05/30 08:17:39;;;;;;;9.37;3.60;;;13.50;99.90;;;14.00;88.04;99055.41;5062149;28;20991;-80
2021/05/30 08:20:10;;;;;;;5.20;3.80;;;13.60;99.90;;;14.03;89.12;99054.22;5060591;28;20467;-81
2021/05/30 08:22:39;;;;;;;7.50;3.70;;;13.50;99.90;;;14.09;88.50;99058.75;5060676;28;20453;-81
2021/05/30 08:25:10;;;;;;;6.03;3.40;;;13.60;99.90;;;14.16;89.84;99059.63;5062662;28;20463;-81
2021/05/30 08:27:38;;;;;;;7.13;3.73;;;13.60;99.90;;;14.23;88.37;99055.25;5059401;28;20464;-80
2021/05/30 08:30:10;;;;;;;6.90;4.40;;;13.80;99.90;;;14.33;88.34;99061.06;5060482;28;20475;-83
2021/05/30 08:32:38;;;;;;;6.90;3.77;;;13.90;99.90;;;14.43;87.88;99048.44;5062241;28;20464;-81
2021/05/30 08:35:09;;;;;;;5.83;3.47;;;14.00;99.90;;;14.53;87.61;99056.84;5064371;28;20448;-81
2021/05/30 08:37:41;;;;;;;4.40;3.10;;;14.00;99.90;;;14.56;85.08;99056.47;5060263;28;20487;-81
2021/05/30 08:40:12;;;;;;;8.40;3.97;;;14.10;99.90;;;14.59;83.71;99053.47;5066417;28;20883;-80
2021/05/30 08:42:40;;;;;;;5.63;3.37;;;14.20;99.90;;;14.69;84.36;99054.97;5064795;28;20526;-80
2021/05/30 08:45:09;;;;;;;5.43;3.23;;;14.20;99.90;;;14.72;83.81;99051.94;5059955;28;20465;-81
2021/05/30 08:47:38;;;;;;;12.87;7.23;;;14.30;99.90;;;14.78;84.28;99054.66;5058801;28;20874;-81
2021/05/30 08:50:07;;;;;;;6.60;3.20;;;14.30;99.90;;;14.87;84.69;99057.97;5062129;28;20484;-81
2021/05/30 08:52:39;;;;;;;4.43;3.40;;;14.40;99.90;;;14.88;81.20;99049.88;5062919;28;20509;-81
2021/05/30 08:55:11;;;;;;;5.30;3.67;;;14.50;99.90;;;14.90;82.32;99054.94;5061443;28;20460;-81
2021/05/30 08:57:40;;;;;;;5.40;3.00;;;14.50;99.90;;;14.96;82.92;99046.31;5063589;28;20563;-81
2021/05/30 09:00:12;;;;;;;5.03;2.70;;;14.50;99.90;;;15.03;80.26;99047.16;5064218;28;20471;-81
2021/05/30 09:03:11;;;;;;;6.20;3.60;;;14.60;99.90;;;15.07;80.43;99051.84;5066708;28;20815;-80
2021/05/30 09:05:39;;;;;;;4.80;3.23;;;14.60;99.90;;;15.19;78.80;99061.88;5061373;28;20900;-81
2021/05/30 09:08:08;;;;;;;13.37;7.27;;;14.70;99.50;;;15.23;79.85;99049.97;5063209;28;20437;-80
2021/05/30 09:10:37;;;;;;;4.53;2.90;;;14.70;99.90;;;15.27;79.00;99049.38;5066029;28;21018;-81
2021/05/30 09:13:14;;;;;;;4.47;2.77;;;14.80;99.80;;;15.37;74.76;99049.88;5062418;28;20550;-79
2021/05/30 09:15:56;;;;;;;3.23;2.53;;;14.90;98.40;;;15.40;71.37;99043.38;5065207;28;20514;-80
2021/05/30 09:18:27;;;;;;;14.33;2.80;;;15.00;97.50;;;15.44;68.67;99053.38;5064273;28;20473;-81
2021/05/30 09:20:58;;;;;;;3.73;3.00;;;15.10;96.60;;;15.48;70.74;99051.97;5063857;28;20460;-81
2021/05/30 09:23:34;;;;;;;5.17;3.40;;;15.00;97.20;;;15.57;72.74;99053.47;5062023;28;20832;-82
2021/05/30 09:26:13;;;;;;;6.23;3.40;;;15.10;98.00;;;15.56;73.44;99049.19;5066543;28;20558;-81
2021/05/30 09:29:03;;;;;;;3.70;2.80;;;15.10;98.00;;;15.57;73.63;99042.09;5063797;28;20526;-82
2021/05/30 09:31:31;;;;;;;7.83;3.63;;;15.10;98.00;;;15.64;74.68;99044.78;5062277;28;20463;-81
2021/05/30 09:33:59;;;;;;;3.63;3.13;;;15.10;98.40;;;15.75;75.40;99052.16;5064772;28;20484;-81
2021/05/30 09:36:27;;;;;;;9.53;3.30;;;15.20;98.80;;;15.82;74.78;99053.81;5063199;28;20563;-82
2021/05/30 09:39:05;;;;;;;6.40;3.23;;;15.30;98.50;;;15.81;71.34;99043.44;5063943;28;20542;-81
2021/05/30 09:41:33;;;;;;;4.03;2.90;;;15.30;97.40;;;15.88;72.25;99037.19;5062090;28;20549;-81
2021/05/30 09:44:02;;;;;;;4.53;3.50;;;15.40;97.80;;;15.91;72.92;99046.53;5062829;28;20543;-81
2021/05/30 09:46:34;;;;;;;4.80;3.77;;;15.40;97.80;;;16.01;73.26;99044.34;5061768;28;20557;-81
2021/05/30 09:49:03;;;;;;;5.70;3.70;;;15.60;98.00;;;16.09;73.43;99050.28;5066819;28;20480;-81
2021/05/30 09:51:39;;;;;;;7.10;3.27;;;15.60;97.90;;;16.19;71.83;99049.06;5061836;28;20953;-81
2021/05/30 09:54:11;;;;;;;3.70;2.83;;;15.70;97.60;;;16.24;71.65;99046.66;5067767;28;20452;-81
2021/05/30 09:56:44;;;;;;;6.80;3.37;;;15.60;97.60;;;16.33;69.28;99056.84;5067342;28;20498;-82
2021/05/30 09:59:14;;;;;;;4.73;3.53;;;15.70;97.10;;;16.34;67.41;99049.75;5069940;28;20464;-81
2021/05/30 10:01:56;;;;;;;4.77;3.37;;;15.80;96.70;;;16.29;66.28;99044.22;5063409;28;20490;-84
2021/05/30 10:04:26;;;;;;;5.30;3.20;;;15.80;95.90;;;16.36;65.73;99050.34;5067775;28;20521;-83
2021/05/30 10:06:56;;;;;;;3.80;2.97;;;15.90;95.70;;;16.42;64.56;99041.63;5067999;28;20449;-83
2021/05/30 10:09:26;;;;;;;4.30;3.20;;;15.90;95.40;;;16.53;64.47;99047.13;5061995;28;20460;-82
2021/05/30 10:11:57;;;;;;;5.70;3.10;;;15.90;95.50;;;16.52;62.41;99039.44;5061445;28;20852;-82
2021/05/30 10:14:27;;;;;;;3.60;2.87;;;15.90;94.60;;;16.49;63.06;99038.00;5066371;28;20460;-82
2021/05/30 10:16:56;;;;;;;4.47;3.00;;;15.90;95.10;;;16.54;64.76;99037.41;5068758;28;20889;-83
2021/05/30 10:19:32;;;;;;;3.37;2.80;;;16.00;95.60;;;16.54;65.25;99038.22;5067452;28;20472;-83
2021/05/30 10:22:01;;;;;;;3.47;2.87;;;16.00;95.70;;;16.62;62.13;99033.78;5066034;28;20470;-83
2021/05/30 10:24:31;;;;;;;6.70;2.80;;;16.10;94.40;;;16.76;62.88;99040.72;5064506;28;20460;-82
2021/05/30 10:27:18;;;;;;;12.90;7.30;;;16.20;94.90;;;16.75;61.88;99031.16;5066188;28;20464;-83
2021/05/30 10:30:23;;;;;;;3.70;2.90;;;16.20;94.40;;;16.69;60.91;99026.69;5064942;28;20959;-82